createdAt,value
2019-04-20T00:00:25.318Z,35.83
2019-04-20T00:01:32.655Z,35.79
2019-04-20T00:02:35.902Z,35.80
2019-04-20T00:03:43.230Z,36.04
2019-04-20T00:04:47.203Z,36.18
2019-04-20T00:05:51.560Z,36.13
2019-04-20T00:06:57.956Z,36.13
2019-04-20T00:08:09.040Z,36.39
2019-04-20T00:09:15.391Z,36.34
2019-04-20T00:10:18.547Z,36.54
2019-04-20T00:11:27.585Z,36.51
2019-04-20T00:12:37.353Z,36.50
2019-04-20T00:13:42.657Z,36.45
2019-04-20T00:14:39.654Z,36.75
2019-04-20T00:15:45.096Z,36.74
2019-04-20T00:16:50.634Z,36.80
2019-04-20T00:17:58.721Z,36.87
2019-04-20T00:19:04.100Z,36.91
2019-04-20T00:20:13.437Z,37.09
2019-04-20T00:21:31.364Z,36.95
2019-04-20T00:22:56.586Z,37.05
2019-04-20T00:24:11.506Z,37.28
2019-04-20T00:25:41.782Z,37.24
2019-04-20T00:27:16.220Z,37.29
2019-04-20T00:28:19.796Z,37.37
2019-04-20T00:29:24.849Z,37.35
2019-04-20T00:30:36.164Z,37.52
2019-04-20T00:31:36.535Z,37.68
2019-04-20T00:32:44.012Z,37.83
2019-04-20T00:33:49.600Z,37.80
2019-04-20T00:34:40.701Z,37.76
2019-04-20T00:35:44.374Z,37.78
2019-04-20T00:36:49.744Z,37.98
2019-04-20T00:37:54.956Z,37.90
2019-04-20T00:39:03.767Z,37.87
2019-04-20T00:40:08.092Z,37.73
2019-04-20T00:41:15.969Z,38.03
2019-04-20T00:42:19.752Z,38.11
2019-04-20T00:43:28.254Z,38.03
2019-04-20T00:44:35.942Z,37.92
2019-04-20T00:45:49.110Z,38.03
2019-04-20T00:46:58.549Z,37.65
2019-04-20T00:47:56.301Z,38.14
2019-04-20T00:49:01.649Z,38.11
2019-04-20T00:50:21.298Z,37.94
2019-04-20T00:51:24.116Z,38.00
2019-04-20T00:52:27.627Z,38.30
2019-04-20T00:53:26.209Z,38.33
2019-04-20T00:54:24.386Z,38.18
2019-04-20T00:55:29.327Z,38.14
2019-04-20T00:56:34.916Z,38.23
2019-04-20T00:57:49.568Z,37.91
2019-04-20T00:59:02.875Z,38.07
2019-04-20T01:00:15.050Z,38.04
2019-04-20T01:01:12.800Z,38.24
2019-04-20T01:02:21.002Z,38.20
2019-04-20T01:03:27.825Z,38.27
2019-04-20T01:04:37.810Z,38.25
2019-04-20T01:05:53.651Z,38.21
2019-04-20T01:06:56.288Z,38.22
2019-04-20T01:07:54.706Z,38.30
2019-04-20T01:09:14.102Z,38.21
2019-04-20T01:10:21.509Z,38.29
2019-04-20T01:11:30.925Z,38.32
2019-04-20T01:12:35.551Z,38.23
2019-04-20T01:13:46.054Z,38.28
2019-04-20T01:14:53.547Z,38.41
2019-04-20T01:15:58.930Z,38.33
2019-04-20T01:17:07.034Z,38.35
2019-04-20T01:18:04.254Z,38.27
2019-04-20T01:19:08.420Z,38.35
2019-04-20T01:20:12.814Z,38.39
2019-04-20T01:21:21.600Z,38.30
2019-04-20T01:22:25.455Z,38.36
2019-04-20T01:23:36.601Z,38.37
2019-04-20T01:24:39.888Z,38.35
2019-04-20T01:25:43.704Z,38.43
2019-04-20T01:26:51.641Z,38.40
2019-04-20T01:28:07.948Z,38.64
2019-04-20T01:29:13.656Z,38.64
2019-04-20T01:30:14.747Z,39.03
2019-04-20T01:31:24.111Z,38.97
2019-04-20T01:32:26.688Z,39.08
2019-04-20T01:33:37.221Z,39.19
2019-04-20T01:34:41.428Z,38.99
2019-04-20T01:35:55.493Z,39.33
2019-04-20T01:37:00.641Z,39.31
2019-04-20T01:38:08.525Z,39.71
2019-04-20T01:39:07.564Z,39.70
2019-04-20T01:40:04.353Z,39.77
2019-04-20T01:41:07.499Z,39.65
2019-04-20T01:42:12.965Z,39.82
2019-04-20T01:43:18.354Z,39.95
2019-04-20T01:44:28.155Z,39.97
2019-04-20T01:45:37.901Z,40.22
2019-04-20T01:46:46.623Z,40.10
2019-04-20T01:47:52.877Z,40.46
2019-04-20T01:48:54.854Z,40.39
2019-04-20T01:50:03.808Z,40.49
2019-04-20T01:51:11.813Z,40.49
2019-04-20T01:52:19.174Z,40.84
2019-04-20T01:53:58.428Z,40.65
2019-04-20T01:54:58.043Z,40.68
2019-04-20T01:56:05.388Z,41.00
2019-04-20T01:57:03.074Z,41.04
2019-04-20T01:58:54.702Z,41.08
2019-04-20T01:59:34.714Z,41.30
2019-04-20T02:00:40.700Z,41.46
2019-04-20T02:01:45.973Z,41.79
2019-04-20T02:02:58.364Z,41.82
2019-04-20T02:04:03.695Z,41.86
2019-04-20T02:05:17.072Z,41.84
2019-04-20T02:06:19.731Z,42.04
2019-04-20T02:07:28.185Z,42.19
2019-04-20T02:08:29.886Z,42.20
2019-04-20T02:09:43.299Z,42.22
2019-04-20T02:10:47.702Z,42.21
2019-04-20T02:11:49.781Z,42.35
2019-04-20T02:12:57.899Z,42.11
2019-04-20T02:14:03.235Z,42.21
2019-04-20T02:15:12.697Z,42.15
2019-04-20T02:16:22.614Z,42.05
2019-04-20T02:17:28.350Z,41.96
2019-04-20T02:18:39.457Z,41.97
2019-04-20T02:19:43.097Z,42.00
2019-04-20T02:20:56.772Z,42.06
2019-04-20T02:21:55.919Z,42.12
2019-04-20T02:23:06.238Z,42.13
2019-04-20T02:23:59.545Z,42.21
2019-04-20T02:24:59.923Z,42.14
2019-04-20T02:26:05.064Z,42.09
2019-04-20T02:27:10.332Z,42.17
2019-04-20T02:28:34.492Z,42.28
2019-04-20T02:29:48.886Z,42.30
2019-04-20T02:32:10.379Z,42.29
2019-04-20T02:34:24.113Z,42.26
2019-04-20T02:35:50.374Z,42.45
2019-04-20T02:38:15.123Z,42.13
2019-04-20T02:40:15.720Z,41.96
2019-04-20T02:41:29.975Z,41.98
2019-04-20T02:42:42.239Z,42.06
2019-04-20T02:43:48.377Z,42.08
2019-04-20T02:46:55.638Z,42.29
2019-04-20T02:48:01.014Z,42.22
2019-04-20T02:49:10.002Z,42.24
2019-04-20T02:50:14.169Z,42.29
2019-04-20T02:51:14.908Z,42.36
2019-04-20T02:52:32.712Z,42.29
2019-04-20T02:53:32.953Z,42.41
2019-04-20T02:54:36.731Z,42.27
2019-04-20T02:57:05.724Z,42.46
2019-04-20T02:59:25.099Z,42.46
2019-04-20T03:01:23.617Z,42.64
2019-04-20T03:02:23.616Z,42.54
2019-04-20T03:03:26.961Z,42.59
2019-04-20T03:04:34.518Z,42.62
2019-04-20T03:05:38.203Z,42.74
2019-04-20T03:06:53.842Z,42.82
2019-04-20T03:08:02.251Z,42.69
2019-04-20T03:09:09.167Z,42.51
2019-04-20T03:10:11.329Z,42.54
2019-04-20T03:11:23.439Z,42.65
2019-04-20T03:12:35.851Z,42.82
2019-04-20T03:13:32.296Z,42.82
2019-04-20T03:14:35.268Z,43.06
2019-04-20T03:15:44.552Z,43.05
2019-04-20T03:16:54.121Z,42.88
2019-04-20T03:18:00.115Z,43.07
2019-04-20T03:19:01.293Z,43.12
2019-04-20T03:20:04.727Z,43.12
2019-04-20T03:21:22.531Z,43.54
2019-04-20T03:22:35.021Z,43.41
2019-04-20T03:23:37.272Z,43.33
2019-04-20T03:24:40.336Z,43.54
2019-04-20T03:25:55.899Z,43.55
2019-04-20T03:26:56.899Z,43.85
2019-04-20T03:28:05.081Z,43.73
2019-04-20T03:29:09.843Z,43.62
2019-04-20T03:31:15.685Z,43.62
2019-04-20T03:33:23.867Z,43.85
2019-04-20T03:35:20.970Z,43.81
2019-04-20T03:36:31.468Z,43.42
2019-04-20T03:37:30.682Z,43.62
2019-04-20T03:38:36.090Z,43.65
2019-04-20T03:39:35.952Z,43.68
2019-04-20T03:40:44.392Z,43.75
2019-04-20T03:41:40.477Z,43.89
2019-04-20T03:42:39.970Z,44.04
2019-04-20T03:43:45.601Z,44.07
2019-04-20T03:44:57.927Z,44.05
2019-04-20T03:46:01.438Z,44.01
2019-04-20T03:47:06.861Z,44.12
2019-04-20T03:48:26.480Z,44.38
2019-04-20T03:49:42.501Z,44.33
2019-04-20T03:50:45.102Z,44.39
2019-04-20T03:51:47.108Z,44.57
2019-04-20T03:52:54.251Z,44.43
2019-04-20T03:54:18.488Z,44.29
2019-04-20T03:55:40.871Z,44.22
2019-04-20T03:56:49.588Z,44.40
2019-04-20T03:58:04.565Z,44.81
2019-04-20T03:59:21.014Z,44.84
2019-04-20T04:00:43.255Z,44.73
2019-04-20T04:02:07.485Z,44.92
2019-04-20T04:03:10.908Z,45.03
2019-04-20T04:04:09.474Z,45.21
2019-04-20T04:05:16.287Z,45.27
2019-04-20T04:06:17.791Z,45.25
2019-04-20T04:07:19.455Z,45.20
2019-04-20T04:08:27.767Z,45.27
2019-04-20T04:09:35.548Z,45.29
2019-04-20T04:10:48.411Z,45.18
2019-04-20T04:11:51.433Z,45.15
2019-04-20T04:13:14.773Z,45.42
2019-04-20T04:14:19.837Z,45.18
2019-04-20T04:15:25.359Z,45.04
2019-04-20T04:16:41.915Z,45.28
2019-04-20T04:17:41.598Z,45.28
2019-04-20T04:18:47.214Z,45.28
2019-04-20T04:19:55.759Z,45.37
2019-04-20T04:21:01.980Z,44.94
2019-04-20T04:22:12.447Z,45.24
2019-04-20T04:23:22.206Z,45.30
2019-04-20T04:24:27.188Z,45.30
2019-04-20T04:25:29.771Z,45.49
2019-04-20T04:26:38.987Z,45.61
2019-04-20T04:27:52.213Z,45.58
2019-04-20T04:28:56.320Z,45.58
2019-04-20T04:30:04.322Z,45.65
2019-04-20T04:31:07.834Z,45.53
2019-04-20T04:32:25.558Z,45.32
2019-04-20T04:33:45.734Z,45.18
2019-04-20T04:34:23.845Z,45.39
2019-04-20T04:35:23.457Z,45.46
2019-04-20T04:36:36.039Z,45.61
2019-04-20T04:37:45.877Z,45.54
2019-04-20T04:38:53.143Z,45.61
2019-04-20T04:40:11.192Z,45.61
2019-04-20T04:41:09.558Z,45.88
2019-04-20T04:42:16.953Z,45.61
2019-04-20T04:43:16.052Z,45.61
2019-04-20T04:44:14.818Z,45.67
2019-04-20T04:45:12.313Z,45.64
2019-04-20T04:46:14.511Z,45.58
2019-04-20T04:47:19.781Z,45.68
2019-04-20T04:48:29.875Z,45.75
2019-04-20T04:49:36.111Z,45.76
2019-04-20T04:50:43.568Z,45.82
2019-04-20T04:51:51.430Z,45.93
2019-04-20T04:52:57.306Z,46.09
2019-04-20T04:54:02.850Z,46.00
2019-04-20T04:55:12.134Z,46.28
2019-04-20T04:56:11.672Z,46.21
2019-04-20T04:57:13.665Z,46.18
2019-04-20T04:58:19.414Z,46.17
2019-04-20T04:59:23.831Z,46.17
2019-04-20T05:00:32.500Z,45.94
2019-04-20T05:01:37.190Z,45.97
2019-04-20T05:02:46.780Z,46.12
2019-04-20T05:04:12.976Z,46.19
2019-04-20T05:05:23.818Z,46.22
2019-04-20T05:06:26.432Z,46.21
2019-04-20T05:07:38.366Z,46.28
2019-04-20T05:08:39.646Z,45.72
2019-04-20T05:09:41.205Z,45.80
2019-04-20T05:10:45.791Z,45.93
2019-04-20T05:11:59.743Z,45.92
2019-04-20T05:12:56.655Z,46.02
2019-04-20T05:14:06.647Z,46.29
2019-04-20T05:15:15.253Z,45.94
2019-04-20T05:16:34.758Z,45.46
2019-04-20T05:17:39.227Z,45.51
2019-04-20T05:18:51.447Z,45.24
2019-04-20T05:19:52.804Z,45.26
2019-04-20T05:20:58.864Z,45.13
2019-04-20T05:22:10.782Z,45.20
2019-04-20T05:23:20.548Z,45.07
2019-04-20T05:24:34.840Z,45.10
2019-04-20T05:25:52.297Z,45.17
2019-04-20T05:27:01.725Z,45.30
2019-04-20T05:28:19.102Z,45.21
2019-04-20T05:29:17.081Z,45.04
2019-04-20T05:30:16.158Z,44.95
2019-04-20T05:31:23.227Z,44.73
2019-04-20T05:32:35.797Z,44.50
2019-04-20T05:33:58.482Z,44.17
2019-04-20T05:34:57.984Z,44.01
2019-04-20T05:36:08.531Z,43.93
2019-04-20T05:37:24.464Z,44.22
2019-04-20T05:38:26.430Z,44.05
2019-04-20T05:39:26.939Z,43.51
2019-04-20T05:40:35.208Z,43.53
2019-04-20T05:41:32.725Z,43.23
2019-04-20T05:42:43.558Z,43.57
2019-04-20T05:43:57.893Z,43.87
2019-04-20T05:45:01.868Z,43.60
2019-04-20T05:46:12.361Z,43.79
2019-04-20T05:47:18.401Z,43.85
2019-04-20T05:48:23.599Z,43.74
2019-04-20T05:49:29.771Z,43.48
2019-04-20T05:50:36.296Z,43.84
2019-04-20T05:51:46.171Z,43.78
2019-04-20T05:52:58.305Z,43.74
2019-04-20T05:53:59.087Z,43.89
2019-04-20T05:55:04.376Z,43.79
2019-04-20T05:56:02.522Z,43.71
2019-04-20T05:57:21.359Z,43.80
2019-04-20T05:58:24.559Z,43.77
2019-04-20T05:59:27.045Z,43.92
2019-04-20T06:00:33.930Z,43.72
2019-04-20T06:01:37.949Z,43.80
2019-04-20T06:02:44.001Z,43.82
2019-04-20T06:03:52.790Z,43.81
2019-04-20T06:06:10.570Z,43.75
2019-04-20T06:07:09.276Z,43.86
2019-04-20T06:08:14.974Z,43.81
2019-04-20T06:09:22.979Z,43.61
2019-04-20T06:10:32.098Z,43.61
2019-04-20T06:11:34.372Z,43.61
2019-04-20T06:12:40.020Z,43.28
2019-04-20T06:13:39.689Z,43.69
2019-04-20T06:15:04.490Z,43.57
2019-04-20T06:16:12.869Z,43.79
2019-04-20T06:17:31.436Z,44.00
2019-04-20T06:18:36.352Z,44.03
2019-04-20T06:19:39.528Z,44.11
2019-04-20T06:20:50.403Z,44.08
2019-04-20T06:22:06.009Z,43.45
2019-04-20T06:23:11.924Z,43.78
2019-04-20T06:24:20.696Z,43.99
2019-04-20T06:27:45.101Z,44.23
2019-04-20T06:28:45.088Z,44.12
2019-04-20T06:29:55.875Z,43.87
2019-04-20T06:30:59.465Z,43.63
2019-04-20T06:32:17.349Z,43.58
2019-04-20T06:34:07.570Z,43.71
2019-04-20T06:34:53.521Z,42.73
2019-04-20T06:36:13.403Z,43.31
2019-04-20T06:37:06.841Z,43.69
2019-04-20T06:38:35.306Z,43.14
2019-04-20T06:40:45.810Z,42.88
2019-04-20T06:41:56.786Z,42.61
2019-04-20T06:42:43.970Z,43.13
2019-04-20T06:43:53.986Z,42.75
2019-04-20T06:44:57.626Z,41.65
2019-04-20T06:46:11.577Z,41.75
2019-04-20T06:47:13.548Z,42.34
2019-04-20T06:48:21.682Z,42.33
2019-04-20T06:50:25.975Z,41.47
2019-04-20T06:51:42.725Z,42.51
2019-04-20T06:53:13.128Z,41.89
2019-04-20T06:54:03.142Z,40.21
2019-04-20T06:55:15.641Z,39.83
2019-04-20T06:56:33.656Z,40.16
2019-04-20T06:57:34.717Z,40.06
2019-04-20T06:58:46.383Z,40.22
2019-04-20T06:59:45.933Z,39.36
2019-04-20T07:00:46.584Z,39.72
2019-04-20T07:02:07.678Z,40.38
2019-04-20T07:03:01.974Z,39.30
2019-04-20T07:04:22.329Z,39.58
2019-04-20T07:07:33.971Z,39.71
2019-04-20T07:08:51.106Z,39.64
2019-04-20T07:09:55.604Z,39.59
2019-04-20T07:10:58.247Z,38.05
2019-04-20T07:12:01.394Z,38.51
2019-04-20T07:12:55.242Z,39.04
2019-04-20T07:13:54.454Z,38.62
2019-04-20T07:15:15.492Z,39.25
2019-04-20T07:16:28.299Z,39.35
2019-04-20T07:17:49.048Z,39.16
2019-04-20T07:19:07.426Z,38.67
2019-04-20T07:20:19.565Z,38.68
2019-04-20T07:21:57.354Z,38.96
2019-04-20T07:22:55.163Z,37.87
2019-04-20T07:24:03.677Z,38.78
2019-04-20T07:25:01.202Z,39.00
2019-04-20T07:26:16.971Z,38.86
2019-04-20T07:27:13.663Z,37.87
2019-04-20T07:28:29.180Z,38.37
2019-04-20T07:29:36.753Z,36.95
2019-04-20T07:30:35.691Z,37.56
2019-04-20T07:31:39.882Z,37.68
2019-04-20T07:32:53.403Z,37.00
2019-04-20T07:33:52.408Z,37.29
2019-04-20T07:34:56.712Z,37.34
2019-04-20T07:36:04.189Z,36.98
2019-04-20T07:37:45.075Z,36.40
2019-04-20T07:39:27.938Z,36.95
2019-04-20T07:40:36.024Z,36.61
2019-04-20T07:42:00.575Z,36.68
2019-04-20T07:42:53.832Z,36.83
2019-04-20T07:44:04.437Z,36.72
2019-04-20T07:45:01.250Z,36.86
2019-04-20T07:46:10.522Z,37.02
2019-04-20T07:47:18.393Z,37.06
2019-04-20T07:48:15.489Z,37.24
2019-04-20T07:49:24.489Z,36.90
2019-04-20T07:50:22.871Z,36.13
2019-04-20T07:51:21.321Z,36.57
2019-04-20T07:52:32.994Z,36.49
2019-04-20T07:53:40.355Z,36.58
2019-04-20T07:55:13.575Z,35.66
2019-04-20T07:56:02.440Z,35.72
2019-04-20T07:57:05.694Z,35.92
2019-04-20T07:58:01.348Z,35.41
2019-04-20T08:00:56.118Z,35.09
2019-04-20T08:02:17.231Z,34.87
2019-04-20T08:03:33.566Z,35.41
2019-04-20T08:04:36.473Z,35.14
2019-04-20T08:05:40.663Z,34.75
2019-04-20T08:06:45.928Z,34.73
2019-04-20T08:07:53.539Z,34.70
2019-04-20T08:09:02.778Z,35.49
2019-04-20T08:10:01.909Z,35.20
2019-04-20T08:11:15.321Z,35.08
2019-04-20T08:12:51.505Z,35.23
2019-04-20T08:13:51.222Z,35.00
2019-04-20T08:15:04.502Z,34.99
2019-04-20T08:17:20.337Z,34.80
2019-04-20T08:18:13.867Z,35.37
2019-04-20T08:19:17.698Z,34.54
2019-04-20T08:20:25.781Z,33.97
2019-04-20T08:21:39.156Z,34.08
2019-04-20T08:22:41.036Z,34.10
2019-04-20T08:23:44.566Z,34.66
2019-04-20T08:24:48.481Z,33.69
2019-04-20T08:25:49.390Z,34.33
2019-04-20T08:26:55.233Z,34.98
2019-04-20T08:27:54.963Z,34.98
2019-04-20T08:29:36.644Z,34.75
2019-04-20T08:30:46.494Z,34.93
2019-04-20T08:32:04.419Z,34.67
2019-04-20T08:33:04.100Z,34.41
2019-04-20T08:34:28.510Z,33.27
2019-04-20T08:35:32.084Z,33.30
2019-04-20T08:36:40.518Z,32.38
2019-04-20T08:37:42.257Z,32.90
2019-04-20T08:39:58.404Z,33.20
2019-04-20T08:41:00.168Z,32.93
2019-04-20T08:42:06.325Z,33.03
2019-04-20T08:43:20.931Z,33.12
2019-04-20T08:44:42.723Z,32.99
2019-04-20T08:45:31.393Z,33.22
2019-04-20T08:46:34.452Z,31.81
2019-04-20T08:47:44.662Z,32.61
2019-04-20T08:48:46.932Z,32.89
2019-04-20T08:50:19.341Z,31.57
2019-04-20T08:51:12.049Z,32.14
2019-04-20T08:52:53.335Z,31.80
2019-04-20T08:53:30.849Z,32.13
2019-04-20T08:54:33.037Z,32.33
2019-04-20T08:55:40.243Z,32.27
2019-04-20T08:56:36.077Z,32.39
2019-04-20T08:57:35.550Z,32.21
2019-04-20T08:58:41.320Z,31.92
2019-04-20T08:59:48.217Z,32.22
2019-04-20T09:00:55.374Z,31.34
2019-04-20T09:02:04.204Z,31.16
2019-04-20T09:03:15.326Z,31.54
2019-04-20T09:04:15.369Z,31.55
2019-04-20T09:05:30.348Z,31.73
2019-04-20T09:06:36.271Z,31.69
2019-04-20T09:07:31.707Z,31.72
2019-04-20T09:08:46.559Z,31.61
2019-04-20T09:10:00.802Z,30.86
2019-04-20T09:10:59.981Z,30.22
2019-04-20T09:12:11.938Z,29.84
2019-04-20T09:13:08.374Z,29.64
2019-04-20T09:14:21.290Z,30.16
2019-04-20T09:15:25.386Z,30.16
2019-04-20T09:16:38.578Z,29.93
2019-04-20T09:17:45.006Z,28.78
2019-04-20T09:18:54.810Z,29.08
2019-04-20T09:19:55.877Z,28.33
2019-04-20T09:21:01.142Z,28.23
2019-04-20T09:22:29.360Z,29.00
2019-04-20T09:23:40.868Z,29.24
2019-04-20T09:25:05.389Z,29.36
2019-04-20T09:26:00.424Z,29.08
2019-04-20T09:27:04.824Z,27.96
2019-04-20T09:28:11.550Z,28.42
2019-04-20T09:29:19.533Z,27.71
2019-04-20T09:30:27.895Z,27.99
2019-04-20T09:31:40.902Z,27.91
2019-04-20T09:32:56.677Z,27.55
2019-04-20T09:34:06.064Z,27.44
2019-04-20T09:35:13.693Z,27.33
2019-04-20T09:36:36.656Z,27.60
2019-04-20T09:37:47.182Z,27.55
2019-04-20T09:39:00.097Z,27.41
2019-04-20T09:40:17.351Z,27.20
2019-04-20T09:41:35.288Z,27.34
2019-04-20T09:42:18.792Z,26.91
2019-04-20T09:43:34.737Z,27.32
2019-04-20T09:44:43.861Z,26.50
2019-04-20T09:45:49.939Z,26.47
2019-04-20T09:46:56.299Z,26.10
2019-04-20T09:47:58.839Z,25.84
2019-04-20T09:49:18.330Z,26.21
2019-04-20T09:50:29.157Z,26.26
2019-04-20T09:51:37.631Z,26.58
2019-04-20T09:52:39.913Z,26.53
2019-04-20T09:53:39.274Z,26.69
2019-04-20T09:54:52.863Z,26.04
2019-04-20T09:55:56.766Z,25.94
2019-04-20T09:57:09.366Z,25.28
2019-04-20T09:58:04.980Z,25.22
2019-04-20T09:59:16.561Z,25.07
2019-04-20T10:00:25.819Z,25.00
2019-04-20T10:01:22.750Z,24.93
2019-04-20T10:02:24.920Z,24.93
2019-04-20T10:03:24.929Z,23.94
2019-04-20T10:04:29.361Z,24.49
2019-04-20T10:05:34.049Z,24.80
2019-04-20T10:06:39.408Z,24.80
2019-04-20T10:07:44.075Z,24.85
2019-04-20T10:08:54.443Z,24.91
2019-04-20T10:09:55.795Z,24.83
2019-04-20T10:11:01.416Z,24.63
2019-04-20T10:12:07.917Z,24.30
2019-04-20T10:13:17.475Z,23.63
2019-04-20T10:14:22.598Z,24.19
2019-04-20T10:15:29.572Z,23.91
2019-04-20T10:16:33.609Z,22.87
2019-04-20T10:17:38.642Z,23.01
2019-04-20T10:18:47.162Z,22.95
2019-04-20T10:19:48.916Z,22.85
2019-04-20T10:20:53.890Z,23.00
2019-04-20T10:22:00.383Z,23.00
2019-04-20T10:23:04.707Z,22.52
2019-04-20T10:24:10.518Z,22.52
2019-04-20T10:25:15.008Z,22.94
2019-04-20T10:26:20.554Z,23.06
2019-04-20T10:27:24.885Z,23.18
2019-04-20T10:28:29.724Z,22.45
2019-04-20T10:29:35.471Z,22.87
2019-04-20T10:30:40.830Z,22.71
2019-04-20T10:31:51.371Z,22.77
2019-04-20T10:32:53.981Z,22.74
2019-04-20T10:33:58.225Z,21.94
2019-04-20T10:35:02.670Z,21.83
2019-04-20T10:36:09.874Z,21.91
2019-04-20T10:37:19.758Z,22.25
2019-04-20T10:38:34.087Z,21.62
2019-04-20T10:39:38.583Z,22.00
2019-04-20T10:40:52.991Z,22.24
2019-04-20T10:41:53.799Z,22.02
2019-04-20T10:42:55.458Z,22.35
2019-04-20T10:44:00.921Z,21.96
2019-04-20T10:45:06.551Z,21.43
2019-04-20T10:46:11.121Z,21.67
2019-04-20T10:47:16.808Z,21.72
2019-04-20T10:48:21.468Z,21.53
2019-04-20T10:49:27.063Z,21.56
2019-04-20T10:50:32.316Z,21.28
2019-04-20T10:51:39.952Z,20.44
2019-04-20T10:52:44.201Z,20.69
2019-04-20T10:53:50.610Z,21.22
2019-04-20T10:54:56.582Z,21.03
2019-04-20T10:56:01.285Z,20.59
2019-04-20T10:57:05.789Z,20.08
2019-04-20T10:58:11.394Z,20.06
2019-04-20T10:59:16.003Z,20.21
2019-04-20T11:00:41.971Z,20.52
2019-04-20T11:01:47.538Z,20.64
2019-04-20T11:02:52.506Z,20.10
2019-04-20T11:03:58.736Z,19.98
2019-04-20T11:05:04.477Z,19.64
2019-04-20T11:06:08.983Z,19.63
2019-04-20T11:07:14.551Z,19.53
2019-04-20T11:08:20.227Z,19.76
2019-04-20T11:09:24.877Z,19.83
2019-04-20T11:10:39.295Z,19.91
2019-04-20T11:11:35.780Z,20.09
2019-04-20T11:12:42.225Z,20.31
2019-04-20T11:13:47.651Z,19.80
2019-04-20T11:14:52.374Z,19.60
2019-04-20T11:15:56.736Z,20.08
2019-04-20T11:17:02.418Z,20.60
2019-04-20T11:18:07.108Z,20.47
2019-04-20T11:19:11.679Z,20.13
2019-04-20T11:20:17.275Z,19.64
2019-04-20T11:21:24.467Z,19.00
2019-04-20T11:22:28.312Z,19.25
2019-04-20T11:23:32.520Z,19.54
2019-04-20T11:24:36.922Z,19.78
2019-04-20T11:25:42.225Z,18.40
2019-04-20T11:26:46.822Z,18.59
2019-04-20T11:27:52.296Z,18.03
2019-04-20T11:28:56.453Z,17.01
2019-04-20T11:30:02.414Z,16.91
2019-04-20T11:31:07.976Z,17.19
2019-04-20T11:32:14.207Z,16.42
2019-04-20T11:33:18.537Z,16.08
2019-04-20T11:34:28.599Z,16.45
2019-04-20T11:35:34.419Z,15.73
2019-04-20T11:36:34.974Z,17.23
2019-04-20T11:37:39.425Z,17.23
2019-04-20T11:38:44.624Z,16.86
2019-04-20T11:39:49.017Z,16.84
2019-04-20T11:41:04.091Z,16.95
2019-04-20T11:41:59.641Z,16.58
2019-04-20T11:43:05.776Z,16.60
2019-04-20T11:44:10.063Z,16.42
2019-04-20T11:45:14.996Z,16.80
2019-04-20T11:46:20.590Z,16.85
2019-04-20T11:47:25.091Z,16.78
2019-04-20T11:48:29.642Z,16.72
2019-04-20T11:49:35.420Z,17.23
2019-04-20T11:50:39.883Z,16.72
2019-04-20T11:51:44.056Z,17.20
2019-04-20T11:52:51.363Z,17.54
2019-04-20T11:53:56.417Z,16.90
2019-04-20T11:55:02.300Z,16.61
2019-04-20T11:56:14.637Z,15.85
2019-04-20T11:57:13.288Z,15.90
2019-04-20T11:58:17.891Z,15.80
2019-04-20T11:59:23.125Z,16.40
2019-04-20T12:00:53.962Z,15.82
2019-04-20T12:02:07.663Z,15.60
2019-04-20T12:03:25.979Z,15.84
2019-04-20T12:04:39.441Z,15.91
2019-04-20T12:05:40.764Z,15.84
2019-04-20T12:06:39.187Z,15.76
2019-04-20T12:07:53.269Z,15.78
2019-04-20T12:08:59.005Z,15.54
2019-04-20T12:10:09.166Z,15.90
2019-04-20T12:11:23.102Z,15.84
2019-04-20T12:12:29.435Z,16.23
2019-04-20T12:13:22.391Z,15.79
2019-04-20T12:14:28.099Z,15.95
2019-04-20T12:15:35.652Z,15.41
2019-04-20T12:16:39.607Z,15.31
2019-04-20T12:17:44.036Z,15.96
2019-04-20T12:18:48.378Z,15.30
2019-04-20T12:19:53.177Z,15.30
2019-04-20T12:20:58.966Z,15.72
2019-04-20T12:22:03.595Z,16.11
2019-04-20T12:23:08.524Z,15.83
2019-04-20T12:24:14.300Z,16.00
2019-04-20T12:25:18.505Z,16.37
2019-04-20T12:26:22.765Z,16.46
2019-04-20T12:27:28.038Z,16.53
2019-04-20T12:28:33.596Z,16.85
2019-04-20T12:29:38.661Z,17.09
2019-04-20T12:30:44.017Z,17.09
2019-04-20T12:31:51.153Z,16.16
2019-04-20T12:32:57.645Z,16.43
2019-04-20T12:34:00.407Z,16.43
2019-04-20T12:35:08.615Z,16.59
2019-04-20T12:36:14.311Z,16.93
2019-04-20T12:37:20.836Z,16.44
2019-04-20T12:38:25.287Z,15.67
2019-04-20T12:39:29.530Z,16.04
2019-04-20T12:40:35.363Z,16.20
2019-04-20T12:41:47.990Z,15.74
2019-04-20T12:42:46.640Z,16.00
2019-04-20T12:43:51.934Z,16.24
2019-04-20T12:44:57.785Z,16.32
2019-04-20T12:46:03.214Z,16.24
2019-04-20T12:47:07.771Z,16.38
2019-04-20T12:48:13.489Z,16.59
2019-04-20T12:49:18.024Z,16.59
2019-04-20T12:50:23.417Z,16.62
2019-04-20T12:51:33.550Z,16.55
2019-04-20T12:52:34.639Z,16.13
2019-04-20T12:53:40.538Z,16.45
2019-04-20T12:54:46.265Z,16.45
2019-04-20T12:55:52.681Z,16.39
2019-04-20T12:56:58.459Z,16.15
2019-04-20T12:58:02.914Z,16.38
2019-04-20T12:59:07.542Z,16.31
2019-04-20T13:00:12.863Z,15.90
2019-04-20T13:01:19.328Z,16.25
2019-04-20T13:02:23.202Z,15.86
2019-04-20T13:03:27.708Z,16.15
2019-04-20T13:04:33.231Z,15.92
2019-04-20T13:05:38.123Z,16.12
2019-04-20T13:06:42.862Z,16.00
2019-04-20T13:07:52.771Z,15.81
2019-04-20T13:08:56.847Z,16.06
2019-04-20T13:10:02.063Z,16.13
2019-04-20T13:11:10.955Z,15.62
2019-04-20T13:12:17.403Z,15.00
2019-04-20T13:13:23.299Z,15.05
2019-04-20T13:14:42.233Z,15.74
2019-04-20T13:15:48.210Z,15.85
2019-04-20T13:16:53.970Z,15.94
2019-04-20T13:17:59.111Z,15.97
2019-04-20T13:19:06.495Z,15.09
2019-04-20T13:20:11.928Z,15.22
2019-04-20T13:21:17.219Z,15.07
2019-04-20T13:22:21.399Z,15.16
2019-04-20T13:23:26.848Z,14.90
2019-04-20T13:24:32.370Z,14.96
2019-04-20T13:25:37.033Z,15.13
2019-04-20T13:26:42.726Z,15.22
2019-04-20T13:27:47.266Z,15.59
2019-04-20T13:28:55.136Z,15.91
2019-04-20T13:30:00.750Z,16.04
2019-04-20T13:31:06.081Z,15.87
2019-04-20T13:32:11.530Z,16.08
2019-04-20T13:33:15.963Z,16.10
2019-04-20T13:34:20.359Z,16.05
2019-04-20T13:35:26.089Z,16.37
2019-04-20T13:36:30.538Z,16.21
2019-04-20T13:37:38.741Z,15.44
2019-04-20T13:38:43.970Z,15.33
2019-04-20T13:39:49.004Z,15.02
2019-04-20T13:40:53.630Z,15.02
2019-04-20T13:42:08.723Z,14.83
2019-04-20T13:43:05.718Z,15.08
2019-04-20T13:44:09.935Z,15.02
2019-04-20T13:45:14.982Z,15.41
2019-04-20T13:46:22.879Z,15.46
2019-04-20T13:47:28.364Z,15.20
2019-04-20T13:48:33.037Z,15.19
2019-04-20T13:49:38.761Z,15.41
2019-04-20T13:50:44.236Z,15.36
2019-04-20T13:51:48.759Z,15.50
2019-04-20T13:52:54.583Z,15.49
2019-04-20T13:53:59.435Z,15.51
2019-04-20T13:55:06.296Z,14.87
2019-04-20T13:56:12.402Z,15.37
2019-04-20T13:57:24.021Z,15.40
2019-04-20T13:58:45.974Z,15.38
2019-04-20T13:59:52.145Z,14.82
2019-04-20T14:01:05.981Z,14.81
2019-04-20T14:02:15.500Z,14.66
2019-04-20T14:03:20.796Z,15.07
2019-04-20T14:04:26.748Z,15.53
2019-04-20T14:05:33.092Z,15.83
2019-04-20T14:06:37.543Z,15.88
2019-04-20T14:07:42.558Z,16.01
2019-04-20T14:08:47.339Z,15.80
2019-04-20T14:09:51.759Z,15.86
2019-04-20T14:10:56.061Z,15.96
2019-04-20T14:12:11.796Z,16.06
2019-04-20T14:13:11.877Z,16.03
2019-04-20T14:14:13.149Z,15.96
2019-04-20T14:15:17.454Z,16.13
2019-04-20T14:16:23.105Z,15.72
2019-04-20T14:17:28.884Z,15.05
2019-04-20T14:18:33.367Z,15.06
2019-04-20T14:19:38.769Z,14.80
2019-04-20T14:20:44.536Z,15.26
2019-04-20T14:21:49.890Z,15.48
2019-04-20T14:22:54.754Z,15.32
2019-04-20T14:24:01.259Z,15.08
2019-04-20T14:25:07.123Z,15.42
2019-04-20T14:26:12.400Z,15.68
2019-04-20T14:27:17.136Z,15.44
2019-04-20T14:28:21.333Z,15.82
2019-04-20T14:29:25.489Z,16.01
2019-04-20T14:30:30.927Z,15.83
2019-04-20T14:31:35.461Z,15.43
2019-04-20T14:32:40.903Z,15.43
2019-04-20T14:33:46.647Z,15.72
2019-04-20T14:34:51.248Z,15.46
2019-04-20T14:35:55.834Z,15.38
2019-04-20T14:37:01.041Z,15.59
2019-04-20T14:38:05.891Z,15.49
2019-04-20T14:39:10.304Z,15.55
2019-04-20T14:40:14.723Z,15.28
2019-04-20T14:41:20.178Z,15.00
2019-04-20T14:42:34.795Z,15.09
2019-04-20T14:43:32.665Z,15.26
2019-04-20T14:44:37.385Z,15.23
2019-04-20T14:45:42.859Z,15.02
2019-04-20T14:46:47.561Z,15.05
2019-04-20T14:47:52.002Z,15.33
2019-04-20T14:48:56.708Z,15.26